EDDE Airport Information

Runway Information
Runway 10 Length 8530 ft width 164 ft
Elevation 1025 ft Threshold 0 ft Heading 98
Runway 28 Length 8530 ft Width 164 ft
Elevation 1016 ft Threshold 689 ft Heading 278
Airport Frequencies
Type APP Name MUNCHEN RA Frequency 132.3 MHZ
Type ATIS Name ATIS Frequency 133.45 MHZ
Type GND Name GND Frequency 121.75 MHZ
Type INFO Name MUNCHEN IN Frequency 120.65 MHZ
Type RMP Name APRON Frequency 121.9 MHZ
Type TWR Name TWR Frequency 121.15 MHZ
Airport Navaids
Type DME Name Erfurt Frequency 112050 KHZ
Type VOR-DME Name Erfurt Frequency 113850 KHZ
Type NDB Name Erfurt Frequency 425 KHZ
Airport Weather Information & NOTAM
ADDS - METARS form results

(2043 UTC 23 February 2019)
Data provider http://aviationweather.gov/metar/data/
 
METAR text: EDDE 232020Z 21006KT CAVOK 00/M06 Q1039 NOSIG
Conditions at: EDDE (ERFURT/BINDERSLE, DE) observed 2020 UTC 23 February 2019
Temperature: 0.0°C (32°F)
Dewpoint: -6.0°C (21°F) [RH = 64%]
Pressure (altimeter): 30.68 inches Hg (1039.0 mb)
Winds: from the SSW (210 degrees) at 7 MPH (6 knots; 3.1 m/s)
Visibility: 6 or more miles (10+ km)
Ceiling: ceiling and visibility are OK
Clouds: unknown
Weather: no significant weather observed at this time

METAR text: EDDE 231950Z 30002KT CAVOK 02/M06 Q1039 NOSIG
Conditions at: EDDE (ERFURT/BINDERSLE, DE) observed 1950 UTC 23 February 2019
Temperature: 2.0°C (36°F)
Dewpoint: -6.0°C (21°F) [RH = 55%]
Pressure (altimeter): 30.68 inches Hg (1039.0 mb)
Winds: from the WNW (300 degrees) at 2 MPH (2 knots; 1.0 m/s)
Visibility: 6 or more miles (10+ km)
Ceiling: ceiling and visibility are OK
Clouds: unknown
Weather: no significant weather observed at this time

Forecast for: EDDE (ERFURT/BINDERSLE, DE)
Text: TAF EDDE 231700Z 2318/2418 11004KT CAVOK
Forecast period: 1800 UTC 23 February 2019 to 0900 UTC 24 February 2019
Forecast type: FROM: standard forecast or significant change
Winds: from the ESE (110 degrees) at 5 MPH (4 knots; 2.1 m/s)
Visibility: 6 or more miles 10+ km)
Ceiling: unknown
Clouds: missing
Weather: NSW  (no significant weather)
Text: BECMG 2409/2412 31005KT
Forecast period: 0900 to 1800 UTC 24 February 2019
Forecast type: BECOMING: Conditions expected to become as follows by 1200 UTC 24 February 2019
Winds: from the NW (310 degrees) at 6 MPH (5 knots; 2.6 m/s)
Visibility: 6 or more miles 10+ km)
Ceiling: unknown
Clouds: missing
Weather: NSW  (no significant weather)